Time;durP1;ratioP1;P1;durP2;ratioP2;P2;SDS_P1;SDS_P2;PMS_P1;PMS_P2;Temp;Humidity;BMP_temperature;BMP_pressure;BME280_temperature;BME280_humidity;BME280_pressure;Samples;Min_cycle;Max_cycle;Signal;HPM_P1;HPM_P2
2023/04/25 00:00:29;;;;;;;3.78;3.47;;;;;;;13.58;67.29;94179.47;5024232;28;20250;-71
2023/04/25 00:02:59;;;;;;;3.80;3.50;;;;;;;13.62;66.39;94187.81;5017621;28;20230;-69
2023/04/25 00:05:25;;;;;;;4.60;4.20;;;;;;;13.53;67.26;94173.94;5009148;28;20214;-68
2023/04/25 00:07:51;;;;;;;4.20;3.80;;;;;;;13.59;67.68;94164.44;5009050;28;20226;-65
2023/04/25 00:10:16;;;;;;;4.47;3.90;;;;;;;13.54;67.65;94164.19;5024707;28;20225;-72
2023/04/25 00:12:42;;;;;;;4.68;4.05;;;;;;;13.54;68.01;94154.44;5006553;28;20264;-67
2023/04/25 00:15:09;;;;;;;4.70;4.30;;;;;;;13.58;67.41;94153.06;5006936;28;20178;-69
2023/04/25 00:17:35;;;;;;;4.65;4.28;;;;;;;13.39;68.17;94145.75;5026041;28;20304;-73
2023/04/25 00:20:04;;;;;;;5.00;4.30;;;;;;;13.43;67.87;94141.75;5012219;28;20313;-69
2023/04/25 00:22:29;;;;;;;5.05;4.60;;;;;;;13.33;69.29;94130.69;5014255;28;20308;-69
2023/04/25 00:24:57;;;;;;;5.57;5.07;;;;;;;13.36;68.85;94125.84;5012379;28;20194;-69
2023/04/25 00:27:22;;;;;;;4.90;4.45;;;;;;;13.31;68.53;94117.69;5006998;28;20191;-72
2023/04/25 00:29:47;;;;;;;5.13;4.72;;;;;;;13.18;69.13;94123.63;5005012;28;20229;-68
2023/04/25 00:32:13;;;;;;;6.13;5.63;;;;;;;13.13;69.32;94115.47;5008346;28;20597;-69
2023/04/25 00:34:38;;;;;;;5.38;4.97;;;;;;;13.30;69.33;94120.50;5007312;28;20320;-67
2023/04/25 00:37:04;;;;;;;5.72;5.25;;;;;;;13.38;69.70;94123.00;5010690;28;20222;-68
2023/04/25 00:39:30;;;;;;;5.38;4.97;;;;;;;13.39;69.59;94119.34;5009534;28;20214;-66
2023/04/25 00:41:56;;;;;;;5.72;5.20;;;;;;;13.35;69.52;94118.13;5011622;28;20223;-68
2023/04/25 00:44:22;;;;;;;5.30;4.80;;;;;;;13.37;69.49;94116.94;5012737;28;20317;-66
2023/04/25 00:46:49;;;;;;;5.07;4.68;;;;;;;13.32;68.60;94110.59;5007534;28;20245;-67
2023/04/25 00:49:15;;;;;;;5.38;4.88;;;;;;;13.27;68.45;94105.06;5022287;28;20225;-69
2023/04/25 00:51:41;;;;;;;4.65;4.30;;;;;;;13.36;68.52;94099.44;5004721;28;20183;-67
2023/04/25 00:54:07;;;;;;;6.75;5.55;;;;;;;13.35;68.63;94104.91;5009545;28;20166;-66
2023/04/25 00:56:32;;;;;;;5.30;4.80;;;;;;;13.26;68.60;94098.97;5006961;28;20496;-68
2023/04/25 00:58:58;;;;;;;5.45;5.05;;;;;;;13.07;69.64;94103.03;5009781;28;20227;-70
2023/04/25 01:01:24;;;;;;;5.93;5.35;;;;;;;13.17;69.67;94106.16;5022962;28;20226;-66
2023/04/25 01:03:50;;;;;;;5.57;5.07;;;;;;;13.30;69.37;94112.59;5026273;28;20224;-66
2023/04/25 01:06:17;;;;;;;6.07;5.47;;;;;;;13.28;68.91;94107.50;5016437;28;20212;-65
2023/04/25 01:08:42;;;;;;;5.60;5.05;;;;;;;13.21;68.41;94103.97;5030773;28;20217;-67
2023/04/25 01:11:08;;;;;;;5.13;4.70;;;;;;;13.30;68.35;94100.19;5027575;28;20697;-68
2023/04/25 01:13:34;;;;;;;5.10;4.70;;;;;;;13.19;68.08;94088.31;5026040;28;20228;-70
2023/04/25 01:16:01;;;;;;;5.03;4.63;;;;;;;13.23;68.37;94079.00;5028572;28;20302;-68
2023/04/25 01:18:26;;;;;;;5.13;4.72;;;;;;;13.29;69.00;94068.72;5025817;28;20229;-68
2023/04/25 01:20:53;;;;;;;5.13;4.72;;;;;;;13.38;68.51;94075.50;5030022;28;20222;-69
2023/04/25 01:23:20;;;;;;;5.47;4.97;;;;;;;13.10;68.01;94083.38;5026678;28;20245;-65
2023/04/25 01:25:47;;;;;;;4.95;4.55;;;;;;;13.09;67.76;94079.88;5030227;28;20532;-65
2023/04/25 01:28:13;;;;;;;5.28;4.78;;;;;;;12.84;69.17;94073.38;5041040;28;20313;-69
2023/04/25 01:30:39;;;;;;;5.38;4.90;;;;;;;12.70;70.85;94075.88;5028100;28;20310;-73
2023/04/25 01:33:05;;;;;;;5.03;4.60;;;;;;;12.87;70.76;94068.53;5028844;28;20175;-69
2023/04/25 01:35:31;;;;;;;5.20;4.75;;;;;;;12.83;70.97;94071.72;5034729;28;20213;-69
2023/04/25 01:37:57;;;;;;;4.60;4.18;;;;;;;12.84;70.43;94076.84;5028819;28;21183;-69
2023/04/25 01:40:24;;;;;;;4.88;4.32;;;;;;;12.80;69.48;94089.59;5036456;28;20275;-67
2023/04/25 01:42:50;;;;;;;5.15;4.75;;;;;;;12.40;71.00;94082.25;5033719;28;20916;-69
2023/04/25 01:45:16;;;;;;;5.45;4.95;;;;;;;12.52;71.38;94083.41;5024632;28;21057;-68
2023/04/25 01:47:43;;;;;;;5.25;4.80;;;;;;;12.48;71.62;94084.75;5032009;28;20233;-73
2023/04/25 01:50:09;;;;;;;5.32;4.93;;;;;;;12.50;70.71;94077.50;5030924;28;20304;-65
2023/04/25 01:52:35;;;;;;;4.90;4.50;;;;;;;12.46;71.45;94086.78;5029790;28;20217;-73
2023/04/25 01:55:02;;;;;;;5.28;4.78;;;;;;;12.49;71.54;94094.31;5026895;28;20221;-65
2023/04/25 01:57:27;;;;;;;4.22;3.92;;;;;;;12.55;71.67;94101.50;5030471;28;20193;-65
2023/04/25 02:00:01;;;;;;;5.75;5.25;;;;;;;12.64;71.45;94091.63;5029363;28;20222;-68
2023/04/25 02:02:27;;;;;;;5.15;4.65;;;;;;;12.56;71.40;94097.84;5024892;28;20226;-67
2023/04/25 02:04:54;;;;;;;4.95;4.57;;;;;;;12.48;70.47;94096.16;5023096;28;20238;-72
2023/04/25 02:07:19;;;;;;;5.57;5.18;;;;;;;12.60;70.49;94083.28;5029585;28;20213;-67
2023/04/25 02:09:45;;;;;;;5.35;4.95;;;;;;;12.65;71.02;94083.53;5032152;28;20566;-69
2023/04/25 02:12:10;;;;;;;5.80;5.30;;;;;;;12.50;70.54;94075.66;5033343;28;20204;-69
2023/04/25 02:14:36;;;;;;;5.05;4.63;;;;;;;12.46;71.18;94082.34;5032148;28;20553;-65
2023/04/25 02:17:02;;;;;;;5.22;4.72;;;;;;;12.58;70.77;94080.81;5026699;28;20245;-64
2023/04/25 02:19:27;;;;;;;5.32;4.82;;;;;;;12.61;70.47;94079.63;5024124;28;20220;-70
2023/04/25 02:21:53;;;;;;;6.07;5.57;;;;;;;12.07;71.95;94072.13;5029596;28;20806;-69
2023/04/25 02:24:21;;;;;;;6.57;6.07;;;;;;;12.19;72.02;94057.50;5031820;28;20189;-65
2023/04/25 02:26:47;;;;;;;6.57;5.97;;;;;;;12.22;71.91;94043.94;5027762;28;20218;-64
2023/04/25 02:29:14;;;;;;;6.75;6.15;;;;;;;12.07;72.55;94048.41;5033629;28;20434;-69
2023/04/25 02:31:40;;;;;;;6.97;6.40;;;;;;;12.20;72.92;94051.22;5029924;28;20267;-67
2023/04/25 02:34:05;;;;;;;5.93;5.45;;;;;;;12.26;72.50;94049.66;5025440;28;20224;-69
2023/04/25 02:36:34;;;;;;;7.10;6.50;;;;;;;12.29;71.67;94046.63;5033943;28;20193;-64
2023/04/25 02:39:00;;;;;;;7.63;6.93;;;;;;;12.24;71.96;94046.38;5033036;28;20544;-70
2023/04/25 02:41:26;;;;;;;7.35;6.70;;;;;;;12.23;71.55;94045.56;5037897;28;20220;-71
2023/04/25 02:43:51;;;;;;;7.78;7.15;;;;;;;12.27;71.51;94049.47;5028001;28;20217;-69
2023/04/25 02:46:17;;;;;;;7.53;6.88;;;;;;;12.33;71.21;94046.09;5028287;28;20588;-70
2023/04/25 02:48:43;;;;;;;7.45;6.85;;;;;;;12.31;71.46;94052.53;5027792;28;20192;-65
2023/04/25 02:51:08;;;;;;;7.93;7.03;;;;;;;12.32;71.55;94044.47;5045215;28;20964;-69
2023/04/25 02:53:34;;;;;;;7.43;6.80;;;;;;;12.29;71.31;94041.38;5030279;28;20233;-70
2023/04/25 02:55:59;;;;;;;7.82;7.13;;;;;;;12.28;71.87;94026.56;5026268;28;20237;-66
2023/04/25 02:58:25;;;;;;;7.72;7.05;;;;;;;12.27;72.03;94024.91;5035568;28;20220;-68
2023/04/25 03:00:50;;;;;;;6.55;6.05;;;;;;;12.27;71.32;94027.56;5030479;28;20468;-65
2023/04/25 03:03:17;;;;;;;6.30;5.80;;;;;;;12.20;71.33;94026.69;5032682;28;20581;-69
2023/04/25 03:05:43;;;;;;;6.38;5.88;;;;;;;12.18;70.87;94029.50;5030272;28;20257;-70
2023/04/25 03:08:09;;;;;;;6.57;6.00;;;;;;;12.22;71.25;94027.31;5033426;28;20238;-69
2023/04/25 03:10:34;;;;;;;7.45;6.75;;;;;;;12.14;71.59;94028.25;5031653;28;20218;-64
2023/04/25 03:13:00;;;;;;;6.80;6.30;;;;;;;12.19;71.28;94025.03;5034116;28;20273;-70
2023/04/25 03:15:25;;;;;;;6.05;5.55;;;;;;;12.19;70.52;94017.13;5028405;28;20174;-64
2023/04/25 03:17:51;;;;;;;7.30;6.80;;;;;;;12.27;70.49;94022.28;5025831;28;20309;-67
2023/04/25 03:20:16;;;;;;;6.07;5.47;;;;;;;12.25;70.67;94022.47;5042848;28;20255;-68
2023/04/25 03:22:42;;;;;;;7.38;6.68;;;;;;;12.18;71.16;94031.31;5028378;28;20221;-68
2023/04/25 03:25:07;;;;;;;7.70;7.07;;;;;;;12.19;71.18;94023.22;5030527;28;20229;-69
2023/04/25 03:27:33;;;;;;;7.00;6.40;;;;;;;12.10;71.30;94019.06;5026199;28;20177;-67
2023/04/25 03:29:58;;;;;;;7.35;6.75;;;;;;;12.16;71.15;94018.31;5032436;28;20245;-69
2023/04/25 03:32:24;;;;;;;7.35;6.72;;;;;;;12.23;70.85;94024.47;5028258;28;20233;-64
2023/04/25 03:34:49;;;;;;;6.70;6.20;;;;;;;12.24;71.11;94020.88;5030750;28;20249;-68
2023/04/25 03:37:15;;;;;;;8.40;7.60;;;;;;;12.27;70.99;94017.00;5030933;28;20248;-67
2023/04/25 03:39:40;;;;;;;7.47;6.78;;;;;;;12.25;71.26;94019.84;5029405;28;20194;-69
2023/04/25 03:42:06;;;;;;;7.93;7.22;;;;;;;12.28;71.01;94024.75;5028416;28;20281;-67
2023/04/25 03:44:31;;;;;;;7.88;7.07;;;;;;;12.30;70.94;94016.66;5036370;28;20321;-68
2023/04/25 03:46:57;;;;;;;8.00;7.30;;;;;;;12.28;71.09;94026.56;5029692;28;20232;-69
2023/04/25 03:49:22;;;;;;;8.77;6.90;;;;;;;12.30;71.22;94025.38;5027302;28;20216;-71
2023/04/25 03:51:48;;;;;;;7.53;6.82;;;;;;;12.32;70.56;94022.53;5032125;28;20267;-69
2023/04/25 03:54:13;;;;;;;8.90;8.02;;;;;;;12.31;70.59;94018.28;5032885;28;20185;-64
2023/04/25 03:56:38;;;;;;;8.45;7.65;;;;;;;12.18;71.01;94023.41;5034589;28;20281;-67
2023/04/25 03:59:04;;;;;;;8.02;7.30;;;;;;;12.24;71.28;94015.59;5029981;28;20285;-67
2023/04/25 04:01:30;;;;;;;8.55;7.75;;;;;;;12.34;71.10;94002.91;5038878;28;20236;-67
2023/04/25 04:03:55;;;;;;;8.30;7.45;;;;;;;12.48;70.56;94000.41;5035942;28;20205;-65
2023/04/25 04:06:20;;;;;;;8.85;7.95;;;;;;;12.45;70.76;94012.13;5032851;28;20187;-64
2023/04/25 04:08:46;;;;;;;7.63;7.03;;;;;;;12.55;70.93;94030.28;5032473;28;20213;-64
2023/04/25 04:11:12;;;;;;;8.77;8.07;;;;;;;12.44;70.95;94022.88;5027899;28;20214;-68
2023/04/25 04:13:37;;;;;;;8.25;7.45;;;;;;;12.48;70.64;94024.97;5032404;28;20274;-69
2023/04/25 04:16:04;;;;;;;7.70;7.10;;;;;;;12.31;70.80;94034.09;5026900;28;20746;-67
2023/04/25 04:18:29;;;;;;;8.10;7.40;;;;;;;12.33;70.66;94025.00;5021397;28;20220;-67
2023/04/25 04:20:57;;;;;;;7.65;6.97;;;;;;;12.49;71.13;94029.22;5030223;28;20221;-66
2023/04/25 04:23:23;;;;;;;8.15;7.45;;;;;;;12.65;70.78;94035.25;5035662;28;20217;-68
2023/04/25 04:25:48;;;;;;;8.65;7.90;;;;;;;12.47;71.10;94018.03;5024965;28;20253;-67
2023/04/25 04:28:15;;;;;;;7.82;7.13;;;;;;;12.40;72.10;94017.16;5031348;28;20708;-67
2023/04/25 04:30:42;;;;;;;7.93;7.32;;;;;;;12.57;71.43;94042.28;5047540;28;20212;-72
2023/04/25 04:33:08;;;;;;;8.63;7.78;;;;;;;12.40;71.11;94022.41;5032706;28;20616;-66
2023/04/25 04:35:34;;;;;;;8.55;7.65;;;;;;;12.18;71.70;94026.03;5040022;28;20246;-65
2023/04/25 04:38:00;;;;;;;7.75;7.15;;;;;;;12.40;71.36;94030.31;5027627;28;20238;-70
2023/04/25 04:40:25;;;;;;;7.88;7.18;;;;;;;12.54;70.59;94037.38;5028485;28;20569;-63
2023/04/25 04:42:53;;;;;;;7.07;6.47;;;;;;;12.63;70.22;94027.53;5023295;28;20333;-67
2023/04/25 04:45:18;;;;;;;6.78;6.28;;;;;;;12.67;70.39;94039.34;5046094;28;20272;-66
2023/04/25 04:47:45;;;;;;;6.47;5.97;;;;;;;12.75;69.77;94028.66;5029867;28;20319;-66
2023/04/25 04:50:11;;;;;;;6.68;6.00;;;;;;;12.81;69.30;94032.38;5032543;28;20221;-69
2023/04/25 04:52:38;;;;;;;6.57;6.07;;;;;;;12.77;69.41;94037.19;5023233;28;20788;-65
2023/04/25 04:55:05;;;;;;;7.15;6.55;;;;;;;12.87;68.29;94042.16;5042540;28;20296;-67
2023/04/25 04:57:32;;;;;;;7.45;6.70;;;;;;;12.66;69.43;94045.59;5032857;28;20181;-67
2023/04/25 04:59:58;;;;;;;9.23;6.82;;;;;;;12.69;69.51;94045.22;5026631;28;20213;-67
2023/04/25 05:02:24;;;;;;;8.23;6.90;;;;;;;12.59;69.44;94042.09;5040074;28;20340;-74
2023/04/25 05:04:51;;;;;;;7.28;6.68;;;;;;;12.71;68.97;94048.50;5029137;28;20320;-70
2023/04/25 05:07:17;;;;;;;8.32;7.28;;;;;;;12.64;69.22;94052.06;5031439;28;20270;-68
2023/04/25 05:09:42;;;;;;;7.90;7.20;;;;;;;12.68;69.45;94061.25;5032142;28;20190;-69
2023/04/25 05:12:07;;;;;;;8.90;8.00;;;;;;;12.53;70.17;94066.56;5045041;28;20216;-68
2023/04/25 05:14:33;;;;;;;8.68;7.68;;;;;;;12.47;69.88;94062.88;5029328;28;20216;-68
2023/04/25 05:16:59;;;;;;;8.43;7.80;;;;;;;12.57;69.47;94062.56;5050698;28;20283;-73
2023/04/25 05:19:24;;;;;;;8.57;7.85;;;;;;;12.55;70.28;94064.56;5044893;28;20550;-68
2023/04/25 05:21:50;;;;;;;9.07;8.27;;;;;;;12.29;72.20;94065.09;5021700;28;20641;-68
2023/04/25 05:24:15;;;;;;;9.85;8.95;;;;;;;12.24;72.89;94057.75;5023691;28;20206;-72
2023/04/25 05:26:41;;;;;;;10.73;9.80;;;;;;;12.29;73.50;94052.72;5022458;28;20558;-72
2023/04/25 05:29:06;;;;;;;11.57;10.48;;;;;;;12.30;73.27;94049.09;5029703;28;20213;-68
2023/04/25 05:31:33;;;;;;;10.90;10.00;;;;;;;12.54;73.18;94047.13;5046107;28;20217;-68
2023/04/25 05:33:58;;;;;;;11.57;10.57;;;;;;;12.77;71.84;94057.47;5026810;28;20218;-71
2023/04/25 05:36:24;;;;;;;10.73;9.70;;;;;;;12.85;70.57;94059.19;5032534;28;20681;-72
2023/04/25 05:38:49;;;;;;;10.63;9.73;;;;;;;12.56;70.57;94061.75;5023485;28;20317;-71
2023/04/25 05:41:15;;;;;;;11.60;10.45;;;;;;;12.68;71.36;94059.44;5036818;28;20919;-70
2023/04/25 05:43:45;;;;;;;8.85;8.02;;;;;;;12.69;68.74;94063.69;5030698;28;20224;-69
2023/04/25 05:46:11;;;;;;;9.20;8.30;;;;;;;12.40;70.67;94045.34;5031669;28;20213;-67
2023/04/25 05:48:37;;;;;;;10.70;9.70;;;;;;;12.57;71.09;94067.84;5036625;28;20209;-64
2023/04/25 05:51:03;;;;;;;11.50;9.60;;;;;;;12.77;70.75;94063.56;5034040;28;20182;-69
2023/04/25 05:53:28;;;;;;;10.27;9.27;;;;;;;12.92;70.01;94066.16;5027809;28;20228;-69
2023/04/25 05:55:54;;;;;;;12.23;11.00;;;;;;;13.03;69.47;94064.81;5029300;28;20326;-69
2023/04/25 05:58:20;;;;;;;11.50;10.27;;;;;;;13.11;69.30;94069.97;5029155;28;20236;-69
2023/04/25 06:00:46;;;;;;;9.82;8.93;;;;;;;13.15;69.28;94060.69;5027205;28;20323;-69
2023/04/25 06:03:14;;;;;;;10.88;9.40;;;;;;;13.22;69.18;94061.53;5032466;28;20192;-70
2023/04/25 06:05:42;;;;;;;10.40;9.27;;;;;;;13.29;68.88;94058.97;5030960;28;20744;-71
2023/04/25 06:08:07;;;;;;;11.30;9.25;;;;;;;13.34;68.25;94064.50;5033252;28;20276;-69
2023/04/25 06:10:33;;;;;;;11.43;8.85;;;;;;;13.39;67.40;94071.81;5027331;28;20217;-71
2023/04/25 06:12:58;;;;;;;10.70;8.32;;;;;;;13.39;67.01;94055.97;5029542;28;20252;-70
2023/04/25 06:15:24;;;;;;;8.07;7.20;;;;;;;13.21;67.15;94062.53;5031752;28;20238;-69
2023/04/25 06:17:49;;;;;;;7.60;5.00;;;;;;;13.23;66.01;94059.69;5028358;28;20606;-69
2023/04/25 06:20:15;;;;;;;6.30;5.70;;;;;;;13.34;65.28;94066.31;5042447;28;20711;-69
2023/04/25 06:22:40;;;;;;;8.57;5.75;;;;;;;13.36;65.78;94066.94;5032046;28;20225;-69
2023/04/25 06:25:06;;;;;;;8.27;6.82;;;;;;;13.43;64.87;94073.91;5044779;28;20225;-68
2023/04/25 06:27:33;;;;;;;8.35;7.00;;;;;;;13.36;65.00;94059.81;5031089;28;20776;-69
2023/04/25 06:29:58;;;;;;;7.72;7.03;;;;;;;13.40;65.42;94062.91;5031187;28;20214;-70
2023/04/25 06:32:24;;;;;;;8.25;7.25;;;;;;;13.45;65.50;94069.25;5030828;28;20289;-68
2023/04/25 06:34:50;;;;;;;7.97;7.15;;;;;;;13.59;65.41;94072.78;5045749;28;20297;-71
2023/04/25 06:37:15;;;;;;;8.57;7.13;;;;;;;13.66;65.05;94071.03;5034658;28;20213;-68
2023/04/25 06:39:41;;;;;;;8.38;7.50;;;;;;;13.64;63.93;94064.28;5028599;28;20185;-71
2023/04/25 06:42:06;;;;;;;8.35;7.55;;;;;;;13.89;63.90;94072.56;5029961;28;20169;-71
2023/04/25 06:44:32;;;;;;;7.25;6.60;;;;;;;13.93;63.10;94068.53;5026349;28;20229;-69
2023/04/25 06:46:57;;;;;;;8.88;8.02;;;;;;;14.02;62.83;94071.81;5031911;28;20241;-70
2023/04/25 06:49:22;;;;;;;11.40;8.57;;;;;;;14.09;63.13;94067.41;5032789;28;20305;-71
2023/04/25 06:51:48;;;;;;;8.27;7.43;;;;;;;14.11;62.86;94076.75;5028585;28;20232;-70
2023/04/25 06:54:13;;;;;;;7.75;7.00;;;;;;;14.25;62.15;94076.81;5034983;28;20179;-69
2023/04/25 06:56:39;;;;;;;9.40;6.88;;;;;;;14.37;61.72;94074.41;5032037;28;20214;-71
2023/04/25 06:59:04;;;;;;;8.68;6.60;;;;;;;14.35;61.75;94077.25;5033166;28;20260;-71
2023/04/25 07:01:30;;;;;;;8.02;7.20;;;;;;;14.41;61.44;94071.19;5036596;28;20225;-72
2023/04/25 07:03:55;;;;;;;9.20;8.00;;;;;;;14.53;61.73;94071.44;5029028;28;20209;-72
2023/04/25 07:06:21;;;;;;;8.90;7.45;;;;;;;14.69;60.79;94072.91;5026887;28;20206;-70
2023/04/25 07:08:46;;;;;;;8.23;7.35;;;;;;;14.65;60.79;94075.16;5026175;28;20218;-71
2023/04/25 07:11:12;;;;;;;6.95;6.30;;;;;;;14.51;60.74;94076.91;5028851;28;20234;-70
2023/04/25 07:13:37;;;;;;;7.32;5.93;;;;;;;14.58;60.74;94068.22;5032835;28;20221;-72
2023/04/25 07:16:03;;;;;;;5.15;4.65;;;;;;;14.58;59.95;94074.31;5033648;28;20260;-72
2023/04/25 07:18:28;;;;;;;6.60;4.93;;;;;;;14.55;59.15;94077.34;5026527;28;20272;-72
2023/04/25 07:20:54;;;;;;;4.70;4.28;;;;;;;14.60;59.16;94069.63;5029987;28;20588;-72
2023/04/25 07:23:20;;;;;;;4.30;3.90;;;;;;;14.58;58.86;94068.22;5035128;28;20217;-70
2023/04/25 07:25:45;;;;;;;4.57;4.18;;;;;;;14.61;58.42;94071.25;5034404;28;20724;-73
2023/04/25 07:28:11;;;;;;;5.95;4.93;;;;;;;14.73;58.71;94069.69;5032375;28;20216;-69
2023/04/25 07:30:36;;;;;;;7.07;5.53;;;;;;;14.73;58.48;94067.03;5032546;28;20189;-72
2023/04/25 07:33:02;;;;;;;7.03;4.60;;;;;;;14.99;58.20;94070.72;5024639;28;20241;-70
2023/04/25 07:35:27;;;;;;;7.82;5.50;;;;;;;15.08;58.29;94066.88;5045270;28;20681;-69
2023/04/25 07:37:53;;;;;;;6.95;4.70;;;;;;;15.09;56.94;94067.69;5026494;28;20248;-69
2023/04/25 07:40:18;;;;;;;5.03;4.53;;;;;;;14.96;57.82;94056.06;5043762;28;20259;-71
2023/04/25 07:42:44;;;;;;;6.55;5.03;;;;;;;15.03;58.17;94064.00;5043645;28;20181;-66
2023/04/25 07:45:10;;;;;;;5.05;4.53;;;;;;;15.20;58.41;94056.47;5032896;28;20208;-66
2023/04/25 07:47:36;;;;;;;6.60;5.32;;;;;;;15.28;57.73;94048.34;5028690;28;20221;-69
2023/04/25 07:50:02;;;;;;;8.25;5.10;;;;;;;15.24;57.54;94057.72;5032339;28;20252;-69
2023/04/25 07:52:28;;;;;;;6.00;5.38;;;;;;;15.09;57.58;94057.09;5024420;28;20214;-69
2023/04/25 07:54:54;;;;;;;9.98;5.10;;;;;;;15.25;57.16;94055.88;5033564;28;20174;-68
2023/04/25 07:57:20;;;;;;;8.80;5.53;;;;;;;15.02;57.95;94061.56;5029640;28;20248;-70
2023/04/25 07:59:45;;;;;;;9.20;5.30;;;;;;;15.12;57.56;94057.50;5033092;28;20267;-68
2023/04/25 08:02:11;;;;;;;5.63;4.85;;;;;;;15.16;57.08;94049.97;5025073;28;20233;-69
2023/04/25 08:04:36;;;;;;;10.60;5.13;;;;;;;15.27;56.36;94046.72;5022183;28;20601;-69
2023/04/25 08:07:02;;;;;;;7.95;5.15;;;;;;;15.43;56.36;94053.44;5023849;28;20218;-68
2023/04/25 08:09:27;;;;;;;7.28;5.47;;;;;;;15.58;56.75;94055.84;5046641;28;20659;-71
2023/04/25 08:11:53;;;;;;;9.15;6.90;;;;;;;15.79;55.61;94046.88;5030931;28;20213;-71
2023/04/25 08:14:18;;;;;;;8.80;6.07;;;;;;;15.85;55.71;94038.91;5027055;28;20216;-68
2023/04/25 08:16:44;;;;;;;5.07;4.68;;;;;;;16.03;55.54;94042.72;5026832;28;20218;-64
2023/04/25 08:19:10;;;;;;;6.70;4.88;;;;;;;16.02;54.67;94038.47;5024736;28;20237;-66
2023/04/25 08:21:36;;;;;;;5.28;4.75;;;;;;;16.04;53.70;94039.88;5030799;28;20209;-69
2023/04/25 08:24:01;;;;;;;4.43;3.58;;;;;;;16.03;52.02;94032.94;5033535;28;20237;-66
2023/04/25 08:26:28;;;;;;;5.15;4.05;;;;;;;16.02;51.59;94030.50;5031200;28;20216;-71
2023/04/25 08:28:53;;;;;;;5.28;4.13;;;;;;;16.05;52.01;94020.28;5030576;28;20222;-70
2023/04/25 08:31:19;;;;;;;5.38;3.95;;;;;;;16.12;52.27;94027.41;5032234;28;20231;-66
2023/04/25 08:33:45;;;;;;;6.65;3.92;;;;;;;16.17;51.65;94023.13;5031703;28;20184;-68
2023/04/25 08:36:10;;;;;;;5.10;3.88;;;;;;;16.22;51.56;94020.63;5026121;28;20177;-70
2023/04/25 08:38:36;;;;;;;7.95;4.43;;;;;;;16.22;52.68;94019.81;5030844;28;20212;-70
2023/04/25 08:41:02;;;;;;;7.40;4.40;;;;;;;16.29;54.16;94029.38;5028796;28;20278;-68
2023/04/25 08:43:29;;;;;;;4.38;3.90;;;;;;;16.22;53.52;94020.63;5031725;28;20327;-64
2023/04/25 08:46:00;;;;;;;3.85;3.55;;;;;;;16.06;52.02;94037.84;5028945;28;20202;-69
2023/04/25 08:48:33;;;;;;;6.35;3.53;;;;;;;15.91;52.23;94042.56;5042190;28;20535;-65
2023/04/25 08:51:02;;;;;;;4.55;3.60;;;;;;;15.96;53.94;94039.28;5025421;28;20213;-67
2023/04/25 08:53:30;;;;;;;5.07;2.80;;;;;;;15.70;54.10;94033.03;5040316;28;20225;-63
2023/04/25 08:55:58;;;;;;;3.42;3.13;;;;;;;15.93;54.76;94037.03;5029622;28;20259;-73
2023/04/25 08:58:23;;;;;;;5.38;4.80;;;;;;;16.25;55.38;94035.31;5030469;28;20245;-65
2023/04/25 09:00:50;;;;;;;7.13;5.55;;;;;;;16.06;60.04;94021.94;5025918;28;20252;-65
2023/04/25 09:03:19;;;;;;;5.82;5.32;;;;;;;15.98;60.70;94014.19;5026807;28;20232;-66
2023/04/25 09:05:45;;;;;;;7.38;6.45;;;;;;;16.34;60.71;94014.69;5030218;28;20249;-67
2023/04/25 09:08:10;;;;;;;9.10;7.25;;;;;;;16.53;60.32;94014.56;5027990;28;20244;-69
2023/04/25 09:10:37;;;;;;;7.88;7.07;;;;;;;16.82;61.17;94019.53;5035514;28;20296;-64
2023/04/25 09:13:12;;;;;;;10.77;7.65;;;;;;;16.97;60.55;94018.19;5035908;28;20308;-67
2023/04/25 09:15:46;;;;;;;8.13;6.80;;;;;;;17.04;59.86;94012.81;5027457;28;20245;-70
2023/04/25 09:18:12;;;;;;;8.30;6.75;;;;;;;17.06;58.49;94008.13;5027101;28;20271;-68
2023/04/25 09:20:44;;;;;;;6.38;5.15;;;;;;;17.22;54.99;94003.31;5042180;28;20247;-68
2023/04/25 09:23:09;;;;;;;6.15;5.32;;;;;;;17.30;55.36;93995.88;5045378;28;20225;-65
2023/04/25 09:25:39;;;;;;;6.47;5.88;;;;;;;17.38;57.13;93997.44;5027549;28;20237;-68
2023/04/25 09:28:06;;;;;;;6.90;6.20;;;;;;;16.97;55.54;93990.81;5024536;28;20221;-68
2023/04/25 09:30:33;;;;;;;12.40;6.97;;;;;;;16.88;57.11;94000.09;5028407;28;20185;-72
2023/04/25 09:33:11;;;;;;;8.40;6.18;;;;;;;16.89;55.88;93999.03;5029172;28;20228;-69
2023/04/25 09:35:38;;;;;;;7.82;5.75;;;;;;;16.92;56.79;94001.25;5022342;28;20213;-68
2023/04/25 09:38:14;;;;;;;6.00;5.40;;;;;;;16.95;55.91;94006.16;5026177;28;20213;-68
2023/04/25 09:40:44;;;;;;;7.80;5.30;;;;;;;16.90;54.48;94000.69;5022348;28;20210;-68
2023/04/25 09:43:21;;;;;;;6.40;5.80;;;;;;;16.88;56.58;94003.53;5025504;28;20213;-68
2023/04/25 09:45:47;;;;;;;7.22;6.35;;;;;;;16.84;56.63;93998.88;5021739;28;20284;-68
2023/04/25 09:48:20;;;;;;;7.65;6.85;;;;;;;16.89;56.67;94001.69;5032840;28;20653;-69
2023/04/25 09:51:03;;;;;;;10.70;7.75;;;;;;;17.09;57.30;94002.38;5022110;28;20214;-68
2023/04/25 09:53:29;;;;;;;9.90;7.07;;;;;;;17.24;55.54;93996.75;5025803;28;20232;-67
2023/04/25 09:55:56;;;;;;;8.90;6.50;;;;;;;17.21;54.46;93989.19;5029858;28;20336;-64
2023/04/25 09:58:24;;;;;;;10.20;6.32;;;;;;;17.14;55.71;93991.09;5030980;28;20213;-65
2023/04/25 10:00:51;;;;;;;6.35;5.75;;;;;;;17.25;54.63;93994.91;5021687;28;20238;-72
2023/04/25 10:03:19;;;;;;;6.63;5.43;;;;;;;17.25;53.08;93995.69;5026894;28;20197;-72
2023/04/25 10:05:49;;;;;;;8.05;6.00;;;;;;;17.23;53.40;93995.09;5034417;28;20222;-76
2023/04/25 10:08:16;;;;;;;7.88;5.63;;;;;;;17.14;54.15;93999.06;5019199;28;20252;-71
2023/04/25 10:10:42;;;;;;;7.10;6.28;;;;;;;17.01;54.73;93984.06;5029586;28;20221;-71
2023/04/25 10:13:08;;;;;;;8.00;6.47;;;;;;;16.91;55.06;93983.72;5028947;28;20232;-67
2023/04/25 10:15:37;;;;;;;7.78;6.72;;;;;;;16.82;55.68;93995.66;5037679;28;20567;-69
2023/04/25 10:18:03;;;;;;;10.88;7.65;;;;;;;16.89;55.48;93999.03;5027486;28;20213;-69
2023/04/25 10:20:31;;;;;;;5.80;5.30;;;;;;;16.81;54.30;94020.53;5029907;28;20295;-69
2023/04/25 10:23:04;;;;;;;6.05;5.30;;;;;;;16.72;53.97;94034.03;5023627;28;20222;-69
2023/04/25 10:25:30;;;;;;;3.40;1.58;;;;;;;15.70;49.76;94017.13;5014898;28;20225;-69
2023/04/25 10:27:55;;;;;;;2.13;1.30;;;;;;;15.71;48.18;93992.25;5023719;28;20285;-66
2023/04/25 10:30:21;;;;;;;4.22;3.83;;;;;;;16.08;48.24;93990.69;5027444;28;20276;-68
2023/04/25 10:32:47;;;;;;;8.18;7.38;;;;;;;16.70;50.53;93988.31;5028418;28;20222;-69
2023/04/25 10:35:33;;;;;;;1.90;1.80;;;;;;;16.73;50.04;93974.63;5030879;28;20221;-69
2023/04/25 10:38:10;;;;;;;1.50;0.90;;;;;;;17.02;45.13;93983.00;5043301;28;20227;-68
2023/04/25 10:40:35;;;;;;;1.33;0.90;;;;;;;17.46;44.92;93969.78;5028951;28;20707;-68
2023/04/25 10:43:36;;;;;;;1.80;1.00;;;;;;;17.94;43.92;93972.56;5031681;28;20217;-70
2023/04/25 10:46:12;;;;;;;1.63;1.02;;;;;;;18.24;41.75;93974.44;5048881;28;20225;-67
2023/04/25 10:48:43;;;;;;;1.52;1.20;;;;;;;18.36;45.39;93967.28;5030997;28;20259;-65
2023/04/25 10:51:35;;;;;;;3.45;1.50;;;;;;;18.47;48.85;93984.34;5032946;28;20287;-67
2023/04/25 10:54:06;;;;;;;1.67;1.58;;;;;;;18.54;48.17;93984.28;5037537;28;20221;-67
2023/04/25 10:56:33;;;;;;;2.58;1.67;;;;;;;18.30;45.31;93984.97;5028643;28;20563;-66
2023/04/25 10:59:18;;;;;;;2.78;1.20;;;;;;;18.04;43.05;93991.47;5051919;28;20214;-65
2023/04/25 11:01:44;;;;;;;4.18;1.10;;;;;;;17.66;45.06;93988.97;5028099;28;20260;-66
2023/04/25 11:04:30;;;;;;;2.53;1.45;;;;;;;17.73;45.72;93981.75;5027652;28;20233;-68
2023/04/25 11:07:31;;;;;;;2.85;1.05;;;;;;;17.77;41.38;93974.13;5023836;28;20186;-67
2023/04/25 11:09:56;;;;;;;3.28;1.20;;;;;;;17.66;42.88;93973.03;5029082;28;20615;-67
2023/04/25 11:12:24;;;;;;;2.10;1.17;;;;;;;17.77;42.30;93964.31;5032138;28;20181;-67
2023/04/25 11:14:50;;;;;;;2.88;1.30;;;;;;;18.12;41.22;93965.56;5028501;28;20217;-68
2023/04/25 11:17:15;;;;;;;3.47;1.50;;;;;;;18.31;41.43;93969.84;5025516;28;20218;-67
2023/04/25 11:19:40;;;;;;;4.45;1.60;;;;;;;18.34;43.97;93974.72;5029000;28;20791;-68
2023/04/25 11:22:10;;;;;;;2.75;1.70;;;;;;;18.22;44.85;93974.66;5028451;28;20229;-73
2023/04/25 11:24:38;;;;;;;3.85;1.10;;;;;;;18.12;43.05;93962.91;5045001;28;20206;-68
2023/04/25 11:27:07;;;;;;;5.68;1.65;;;;;;;17.97;42.68;93971.28;5031316;28;20239;-69
2023/04/25 11:29:34;;;;;;;1.92;1.70;;;;;;;17.93;45.21;93975.41;5026105;28;20241;-70